createdAt,value
2023-05-29T00:02:04.904Z,78.79
2023-05-29T00:04:32.728Z,78.83
2023-05-29T00:07:00.549Z,79.80
2023-05-29T00:09:29.123Z,77.68
2023-05-29T00:11:58.299Z,75.90
2023-05-29T00:14:26.372Z,76.43
2023-05-29T00:16:54.213Z,77.99
2023-05-29T00:19:22.384Z,77.13
2023-05-29T00:21:50.092Z,77.85
2023-05-29T00:24:18.273Z,77.77
2023-05-29T00:26:46.957Z,78.08
2023-05-29T00:29:16.273Z,77.12
2023-05-29T00:31:44.070Z,79.28
2023-05-29T00:34:11.912Z,77.81
2023-05-29T00:36:39.892Z,78.89
2023-05-29T00:39:07.736Z,78.71
2023-05-29T00:41:35.511Z,79.12
2023-05-29T00:44:03.278Z,78.33
2023-05-29T00:46:33.914Z,78.31
2023-05-29T00:49:02.787Z,77.62
2023-05-29T00:51:32.604Z,77.40
2023-05-29T00:54:01.065Z,80.06
2023-05-29T00:56:28.926Z,81.03
2023-05-29T00:58:57.031Z,78.88
2023-05-29T01:01:25.367Z,80.96
2023-05-29T01:03:58.193Z,81.30
2023-05-29T01:06:26.488Z,79.15
2023-05-29T01:08:54.216Z,79.41
2023-05-29T01:11:33.691Z,79.44
2023-05-29T01:14:08.618Z,81.18
2023-05-29T01:16:40.613Z,80.63
2023-05-29T01:19:19.913Z,80.88
2023-05-29T01:22:01.141Z,81.18
2023-05-29T01:24:39.121Z,80.01
2023-05-29T01:27:12.218Z,80.18
2023-05-29T01:29:43.656Z,80.52
2023-05-29T01:32:12.785Z,81.87
2023-05-29T01:34:40.825Z,81.38
2023-05-29T01:37:08.593Z,82.42
2023-05-29T01:39:36.852Z,80.82
2023-05-29T01:42:06.449Z,81.29
2023-05-29T01:44:36.120Z,79.88
2023-05-29T01:47:05.450Z,80.23
2023-05-29T01:49:33.877Z,80.00
2023-05-29T01:52:01.668Z,80.03
2023-05-29T01:54:29.602Z,78.80
2023-05-29T01:56:57.526Z,80.18
2023-05-29T01:59:25.812Z,80.43
2023-05-29T02:01:54.912Z,80.21
2023-05-29T02:04:22.766Z,80.67
2023-05-29T02:06:50.854Z,80.38
2023-05-29T02:09:19.514Z,79.54
2023-05-29T02:11:47.307Z,80.24
2023-05-29T02:14:15.043Z,82.01
2023-05-29T02:16:45.045Z,79.67
2023-05-29T02:19:14.325Z,80.11
2023-05-29T02:21:42.219Z,79.07
2023-05-29T02:24:09.971Z,81.23
2023-05-29T02:26:38.845Z,80.24
2023-05-29T02:29:07.749Z,81.15
2023-05-29T02:31:35.758Z,82.13
2023-05-29T02:34:03.523Z,83.26
2023-05-29T02:36:32.622Z,81.23
2023-05-29T02:39:00.385Z,81.00
2023-05-29T02:41:28.114Z,80.29
2023-05-29T02:43:55.866Z,81.25
2023-05-29T02:46:23.829Z,80.92
2023-05-29T02:48:51.581Z,82.31
2023-05-29T02:51:19.407Z,82.26
2023-05-29T02:53:49.457Z,81.79
2023-05-29T02:56:17.776Z,80.87
2023-05-29T02:58:46.210Z,83.65
2023-05-29T03:01:13.991Z,81.03
2023-05-29T03:03:41.928Z,80.67
2023-05-29T03:06:10.972Z,82.56
2023-05-29T03:08:40.928Z,82.86
2023-05-29T03:11:11.919Z,82.05
2023-05-29T03:13:39.857Z,82.42
2023-05-29T03:16:09.300Z,82.81
2023-05-29T03:18:37.188Z,83.84
2023-05-29T03:21:04.961Z,83.07
2023-05-29T03:23:32.679Z,84.24
2023-05-29T03:26:00.459Z,84.21
2023-05-29T03:28:29.554Z,83.95
2023-05-29T03:30:57.492Z,83.46
2023-05-29T03:33:25.351Z,82.53
2023-05-29T03:35:53.118Z,84.52
2023-05-29T03:38:20.915Z,84.08
2023-05-29T03:40:48.705Z,84.72
2023-05-29T03:43:16.492Z,83.34
2023-05-29T03:45:45.581Z,83.00
2023-05-29T03:48:13.367Z,81.47
2023-05-29T03:50:41.084Z,83.86
2023-05-29T03:53:08.853Z,82.99
2023-05-29T03:55:37.021Z,81.85
2023-05-29T03:58:04.756Z,82.30
2023-05-29T04:00:32.633Z,82.76
2023-05-29T04:03:02.219Z,82.08
2023-05-29T04:05:30.135Z,83.03
2023-05-29T04:08:14.203Z,83.75
2023-05-29T04:10:42.904Z,83.35
2023-05-29T04:13:10.630Z,82.96
2023-05-29T04:15:38.951Z,81.86
2023-05-29T04:18:08.210Z,82.25
2023-05-29T04:20:36.094Z,81.32
2023-05-29T04:23:04.167Z,81.26
2023-05-29T04:25:33.220Z,83.14
2023-05-29T04:28:03.908Z,81.47
2023-05-29T04:30:33.794Z,82.65
2023-05-29T04:33:01.920Z,81.16
2023-05-29T04:35:31.086Z,82.22
2023-05-29T04:37:58.954Z,81.51
2023-05-29T04:40:27.456Z,80.44
2023-05-29T04:42:55.313Z,79.74
2023-05-29T04:45:23.213Z,80.18
2023-05-29T04:47:51.039Z,79.19
2023-05-29T04:50:19.147Z,78.90
2023-05-29T04:52:48.485Z,80.29
2023-05-29T04:55:17.505Z,82.96
2023-05-29T04:57:45.275Z,81.34
2023-05-29T05:00:15.343Z,82.55
2023-05-29T05:02:44.875Z,82.19
2023-05-29T05:05:12.992Z,81.87
2023-05-29T05:07:40.783Z,79.41
2023-05-29T05:10:10.776Z,80.42
2023-05-29T05:12:38.752Z,79.73
2023-05-29T05:15:07.825Z,81.54
2023-05-29T05:17:35.609Z,79.70
2023-05-29T05:20:05.079Z,80.81
2023-05-29T05:22:32.833Z,81.17
2023-05-29T05:25:01.542Z,80.76
2023-05-29T05:27:31.176Z,81.12
2023-05-29T05:29:58.909Z,79.84
2023-05-29T05:32:27.018Z,79.64
2023-05-29T05:34:54.744Z,78.11
2023-05-29T05:37:24.260Z,78.19
2023-05-29T05:39:52.075Z,76.66
2023-05-29T05:42:19.860Z,78.80
2023-05-29T05:44:49.025Z,77.41
2023-05-29T05:47:16.789Z,77.40
2023-05-29T05:49:44.865Z,78.17
2023-05-29T05:52:12.619Z,77.26
2023-05-29T05:54:40.358Z,78.17
2023-05-29T05:57:08.511Z,77.92
2023-05-29T05:59:36.931Z,77.62
2023-05-29T06:02:08.647Z,76.54
2023-05-29T06:04:37.625Z,76.42
2023-05-29T06:07:05.801Z,76.24
2023-05-29T06:09:33.566Z,76.59
2023-05-29T06:12:01.330Z,76.30
2023-05-29T06:14:29.063Z,76.06
2023-05-29T06:16:57.415Z,76.69
2023-05-29T06:19:26.554Z,76.49
2023-05-29T06:21:54.316Z,74.54
2023-05-29T06:24:22.072Z,75.22
2023-05-29T06:26:51.267Z,73.91
2023-05-29T06:29:18.991Z,74.96
2023-05-29T06:31:46.901Z,73.74
2023-05-29T06:34:14.870Z,73.17
2023-05-29T06:36:44.260Z,73.20
2023-05-29T06:39:12.157Z,72.96
2023-05-29T06:41:40.034Z,72.91
2023-05-29T06:44:07.754Z,71.98
2023-05-29T06:46:35.619Z,72.69
2023-05-29T06:49:05.587Z,73.33
2023-05-29T06:51:35.365Z,74.18
2023-05-29T06:54:04.828Z,71.30
2023-05-29T06:56:32.552Z,70.96
2023-05-29T06:59:00.287Z,71.55
2023-05-29T07:01:28.075Z,71.76
2023-05-29T07:03:56.207Z,69.92
2023-05-29T07:06:23.991Z,69.29
2023-05-29T07:08:51.736Z,69.63
2023-05-29T07:11:20.837Z,70.06
2023-05-29T07:13:48.677Z,67.26
2023-05-29T07:16:24.366Z,68.78
2023-05-29T07:18:53.003Z,69.11
2023-05-29T07:21:21.454Z,69.12
2023-05-29T07:23:49.308Z,70.87
2023-05-29T07:26:17.114Z,68.33
2023-05-29T07:28:46.253Z,66.62
2023-05-29T07:31:14.009Z,68.33
2023-05-29T07:33:42.467Z,68.32
2023-05-29T07:36:10.677Z,67.27
2023-05-29T07:38:38.578Z,68.58
2023-05-29T07:41:06.381Z,66.39
2023-05-29T07:43:34.193Z,66.35
2023-05-29T07:46:03.746Z,67.90
2023-05-29T07:48:31.737Z,68.94
2023-05-29T07:51:00.022Z,66.44
2023-05-29T07:53:27.785Z,64.14
2023-05-29T07:55:55.542Z,63.22
2023-05-29T07:58:23.360Z,63.51
2023-05-29T08:00:52.014Z,65.53
2023-05-29T08:03:22.291Z,64.14
2023-05-29T08:05:50.820Z,63.76
2023-05-29T08:08:18.776Z,63.58
2023-05-29T08:10:46.729Z,66.24
2023-05-29T08:13:14.430Z,65.00
2023-05-29T08:15:42.191Z,66.91
2023-05-29T08:18:10.043Z,65.20
2023-05-29T08:20:39.331Z,64.79
2023-05-29T08:23:07.362Z,65.34
2023-05-29T08:25:35.208Z,64.94
2023-05-29T08:28:03.715Z,65.42
2023-05-29T08:30:32.124Z,65.33
2023-05-29T08:33:00.746Z,66.00
2023-05-29T08:35:28.943Z,65.89
2023-05-29T08:37:58.078Z,65.90
2023-05-29T08:40:25.856Z,64.34
2023-05-29T08:42:59.136Z,64.62
2023-05-29T08:45:27.299Z,64.28
2023-05-29T08:47:56.249Z,63.70
2023-05-29T08:50:24.479Z,64.66
2023-05-29T08:52:53.255Z,63.84
2023-05-29T08:55:22.588Z,64.03
2023-05-29T08:57:51.176Z,64.75
2023-05-29T09:00:19.544Z,64.99
2023-05-29T09:02:47.418Z,63.40
2023-05-29T09:05:15.327Z,62.93
2023-05-29T09:07:44.776Z,62.82
2023-05-29T09:10:12.869Z,62.79
2023-05-29T09:12:42.173Z,64.04
2023-05-29T09:15:19.490Z,65.88
2023-05-29T09:17:52.254Z,63.18
2023-05-29T09:20:23.976Z,64.62
2023-05-29T09:22:55.702Z,63.02
2023-05-29T09:25:25.993Z,62.63
2023-05-29T09:27:57.936Z,63.67
2023-05-29T09:30:37.161Z,64.73
2023-05-29T09:33:07.099Z,63.39
2023-05-29T09:35:39.298Z,62.53
2023-05-29T09:38:07.742Z,61.09
2023-05-29T09:40:39.397Z,59.96
2023-05-29T09:43:17.985Z,60.85
2023-05-29T09:45:47.274Z,59.54
2023-05-29T09:48:17.153Z,58.16
2023-05-29T09:50:48.926Z,60.34
2023-05-29T09:53:21.236Z,59.06
2023-05-29T09:55:49.577Z,60.08
2023-05-29T09:58:20.408Z,60.13
2023-05-29T10:00:49.575Z,59.00
2023-05-29T10:03:18.911Z,57.80
2023-05-29T10:05:53.227Z,55.35
2023-05-29T10:08:22.378Z,56.45
2023-05-29T10:10:56.143Z,55.45
2023-05-29T10:13:27.451Z,57.38
2023-05-29T10:15:57.075Z,55.88
2023-05-29T10:18:28.632Z,56.67
2023-05-29T10:20:59.753Z,57.12
2023-05-29T10:23:30.192Z,59.57
2023-05-29T10:26:08.835Z,60.07
2023-05-29T10:28:42.531Z,59.31
2023-05-29T10:31:13.224Z,60.52
2023-05-29T10:33:56.809Z,60.80
2023-05-29T10:36:27.748Z,60.17
2023-05-29T10:38:55.535Z,58.92
2023-05-29T10:41:40.419Z,59.73
2023-05-29T10:44:42.204Z,59.05
2023-05-29T10:47:13.303Z,57.78
2023-05-29T10:49:41.514Z,57.83
2023-05-29T10:52:12.725Z,57.18
2023-05-29T10:54:54.057Z,56.58
2023-05-29T10:57:24.387Z,56.36
2023-05-29T11:00:04.660Z,58.29
2023-05-29T11:02:32.796Z,57.77
2023-05-29T11:05:08.370Z,57.22
2023-05-29T11:07:37.188Z,57.94
2023-05-29T11:10:15.882Z,57.35
2023-05-29T11:12:59.100Z,56.22
2023-05-29T11:15:28.316Z,56.41
2023-05-29T11:17:57.084Z,55.65
2023-05-29T11:20:39.127Z,54.27
2023-05-29T11:23:09.567Z,55.28
2023-05-29T11:25:39.044Z,56.71
2023-05-29T11:28:09.820Z,55.61
2023-05-29T11:30:49.566Z,56.41
2023-05-29T11:33:28.020Z,55.39
2023-05-29T11:35:58.881Z,54.95
2023-05-29T11:38:27.020Z,54.37
2023-05-29T11:40:55.793Z,53.71
2023-05-29T11:43:23.735Z,54.51
2023-05-29T11:45:52.960Z,54.13
2023-05-29T11:48:21.103Z,53.11
2023-05-29T11:50:48.840Z,53.63
2023-05-29T11:53:17.079Z,54.50
2023-05-29T11:55:45.778Z,52.60
2023-05-29T11:58:13.687Z,53.28
2023-05-29T12:00:43.060Z,53.54
2023-05-29T12:03:13.283Z,51.22
2023-05-29T12:05:49.754Z,52.45
2023-05-29T12:08:17.708Z,53.06
2023-05-29T12:10:49.529Z,51.64
2023-05-29T12:13:18.253Z,50.66
2023-05-29T12:15:46.517Z,49.35
2023-05-29T12:18:16.372Z,49.35
2023-05-29T12:20:44.273Z,48.52
2023-05-29T12:23:13.095Z,49.35
2023-05-29T12:25:41.162Z,48.84
2023-05-29T12:28:09.029Z,48.66
2023-05-29T12:30:40.486Z,48.76
2023-05-29T12:33:08.629Z,49.76
2023-05-29T12:35:37.966Z,47.98
2023-05-29T12:38:09.517Z,48.25
2023-05-29T12:40:38.194Z,46.99
2023-05-29T12:43:10.071Z,47.52
2023-05-29T12:45:37.876Z,47.73
2023-05-29T12:48:07.125Z,48.02
2023-05-29T12:50:38.418Z,45.50
2023-05-29T12:53:08.002Z,46.36
2023-05-29T12:55:39.475Z,46.68
2023-05-29T12:58:07.985Z,47.03
2023-05-29T13:00:36.428Z,47.42
2023-05-29T13:03:05.048Z,45.57
2023-05-29T13:05:32.975Z,46.84
2023-05-29T13:08:02.556Z,46.86
2023-05-29T13:10:31.257Z,46.33
2023-05-29T13:13:00.145Z,46.59
2023-05-29T13:15:28.408Z,47.38
2023-05-29T13:17:56.239Z,47.58
2023-05-29T13:20:24.122Z,48.55
2023-05-29T13:22:52.029Z,48.19
2023-05-29T13:25:22.404Z,47.25
2023-05-29T13:27:50.811Z,44.58
2023-05-29T13:30:18.735Z,43.45
2023-05-29T13:32:46.649Z,44.07
2023-05-29T13:35:14.446Z,44.34
2023-05-29T13:37:42.334Z,44.15
2023-05-29T13:40:11.195Z,43.32
2023-05-29T13:42:40.494Z,43.91
2023-05-29T13:45:09.931Z,43.47
2023-05-29T13:47:38.213Z,44.06
2023-05-29T13:50:08.009Z,43.28
2023-05-29T13:52:35.998Z,42.48
2023-05-29T13:55:09.338Z,43.80
2023-05-29T13:57:37.570Z,43.83
2023-05-29T14:00:08.726Z,43.39
2023-05-29T14:02:36.785Z,43.71
2023-05-29T14:05:04.799Z,43.80
2023-05-29T14:07:32.539Z,44.40
2023-05-29T14:10:00.394Z,43.30
2023-05-29T14:12:28.201Z,43.33
2023-05-29T14:14:55.956Z,44.24
2023-05-29T14:17:27.094Z,44.43
2023-05-29T14:19:56.086Z,44.51
2023-05-29T14:22:23.886Z,43.46
2023-05-29T14:24:51.628Z,43.78
2023-05-29T14:27:19.823Z,44.65
2023-05-29T14:29:48.623Z,44.70
2023-05-29T14:32:16.363Z,44.52
2023-05-29T14:34:45.657Z,44.44
2023-05-29T14:37:13.454Z,44.51
2023-05-29T14:39:41.210Z,44.42
2023-05-29T14:42:09.867Z,45.02
2023-05-29T14:44:37.643Z,44.97
2023-05-29T14:47:05.729Z,44.65
2023-05-29T14:49:34.703Z,44.23
2023-05-29T14:52:05.311Z,44.89
2023-05-29T14:54:33.145Z,44.30
2023-05-29T14:57:01.354Z,44.35
2023-05-29T14:59:29.139Z,44.45
2023-05-29T15:01:57.954Z,45.21
2023-05-29T15:04:25.678Z,45.44
2023-05-29T15:09:44.408Z,45.47
2023-05-29T15:09:53.344Z,45.68
2023-05-29T15:12:12.233Z,45.30
2023-05-29T15:14:39.947Z,45.06
2023-05-29T15:17:08.082Z,45.88
2023-05-29T15:19:36.047Z,45.37
2023-05-29T15:22:03.782Z,44.50
2023-05-29T15:24:31.577Z,46.00
2023-05-29T15:27:00.708Z,46.06
2023-05-29T15:29:28.471Z,46.11
2023-05-29T15:31:56.251Z,47.73
2023-05-29T15:34:24.039Z,46.91
2023-05-29T15:36:51.765Z,47.11
2023-05-29T15:39:19.605Z,46.66
2023-05-29T15:41:47.366Z,46.48
2023-05-29T15:44:16.565Z,47.74
2023-05-29T15:46:44.490Z,46.50
2023-05-29T15:49:12.252Z,46.63
2023-05-29T15:51:42.129Z,47.30
2023-05-29T15:54:10.200Z,46.70
2023-05-29T15:56:37.953Z,46.66
2023-05-29T15:59:06.404Z,45.93
2023-05-29T16:01:36.582Z,46.28
2023-05-29T16:04:04.695Z,48.64
2023-05-29T16:06:33.227Z,47.21
2023-05-29T16:09:03.396Z,47.98
2023-05-29T16:11:31.135Z,48.17
2023-05-29T16:13:58.959Z,49.08
2023-05-29T16:16:26.904Z,49.19
2023-05-29T16:18:56.019Z,48.92
2023-05-29T16:21:23.793Z,49.99
2023-05-29T16:23:57.666Z,50.91
2023-05-29T16:26:28.063Z,51.73
2023-05-29T16:28:56.657Z,52.32
2023-05-29T16:31:25.287Z,53.50
2023-05-29T16:33:53.048Z,52.37
2023-05-29T16:36:22.251Z,53.79
2023-05-29T16:38:50.643Z,52.96
2023-05-29T16:41:18.568Z,52.32
2023-05-29T16:43:46.330Z,52.46
2023-05-29T16:46:14.268Z,52.38
2023-05-29T16:48:42.222Z,53.03
2023-05-29T16:51:11.410Z,53.05
2023-05-29T16:53:40.588Z,53.35
2023-05-29T16:56:08.562Z,53.74
2023-05-29T16:58:36.367Z,55.30
2023-05-29T17:01:04.216Z,54.23
2023-05-29T17:03:32.107Z,56.42
2023-05-29T17:05:59.856Z,54.97
2023-05-29T17:08:27.680Z,55.02
2023-05-29T17:10:56.777Z,54.89
2023-05-29T17:13:24.530Z,54.84
2023-05-29T17:15:52.276Z,56.20
2023-05-29T17:18:20.076Z,55.21
2023-05-29T17:20:48.062Z,55.48
2023-05-29T17:23:16.012Z,55.53
2023-05-29T17:25:43.775Z,55.01
2023-05-29T17:28:12.956Z,56.44
2023-05-29T17:30:41.065Z,56.99
2023-05-29T17:33:08.865Z,56.97
2023-05-29T17:35:36.677Z,57.91
2023-05-29T17:38:05.041Z,56.99
2023-05-29T17:40:33.174Z,57.78
2023-05-29T17:43:00.939Z,56.51
2023-05-29T17:45:30.043Z,56.69
2023-05-29T17:47:57.902Z,56.75
2023-05-29T17:50:25.673Z,57.64
2023-05-29T17:52:53.431Z,58.41
2023-05-29T17:55:21.190Z,58.62
2023-05-29T17:57:49.082Z,57.79
2023-05-29T18:00:18.191Z,57.61
2023-05-29T18:02:47.327Z,57.49
2023-05-29T18:05:15.309Z,58.51
2023-05-29T18:07:43.027Z,58.22
2023-05-29T18:10:11.570Z,59.45
2023-05-29T18:12:45.435Z,60.51
2023-05-29T18:15:14.894Z,58.75
2023-05-29T18:17:42.705Z,59.70
2023-05-29T18:20:14.110Z,58.76
2023-05-29T18:22:41.925Z,59.65
2023-05-29T18:25:10.642Z,59.44
2023-05-29T18:27:38.679Z,59.29
2023-05-29T18:30:08.184Z,59.43
2023-05-29T18:32:37.138Z,60.09
2023-05-29T18:35:05.459Z,59.84
2023-05-29T18:37:34.571Z,61.49
2023-05-29T18:40:02.773Z,61.75
2023-05-29T18:42:30.512Z,61.74
2023-05-29T18:44:58.420Z,62.89
2023-05-29T18:47:26.248Z,61.77
2023-05-29T18:49:55.246Z,62.11
2023-05-29T18:52:23.718Z,61.71
2023-05-29T18:54:53.069Z,62.46
2023-05-29T18:57:20.858Z,62.94
2023-05-29T18:59:50.498Z,63.00
2023-05-29T19:02:18.346Z,63.95
2023-05-29T19:04:46.118Z,64.63
2023-05-29T19:07:13.830Z,63.39
2023-05-29T19:09:42.326Z,62.25
2023-05-29T19:12:12.082Z,65.35
2023-05-29T19:14:39.838Z,63.83
2023-05-29T19:17:10.458Z,67.21
2023-05-29T19:19:40.281Z,67.61
2023-05-29T19:22:08.638Z,66.76
2023-05-29T19:24:36.405Z,67.31
2023-05-29T19:27:04.333Z,66.61
2023-05-29T19:29:33.464Z,68.11
2023-05-29T19:32:01.398Z,67.58
2023-05-29T19:34:29.135Z,70.85
2023-05-29T19:36:56.898Z,69.79
2023-05-29T19:39:24.632Z,70.32
2023-05-29T19:41:52.410Z,70.14
2023-05-29T19:44:20.222Z,69.12
2023-05-29T19:46:50.836Z,69.58
2023-05-29T19:49:19.012Z,70.73
2023-05-29T19:51:46.765Z,71.58
2023-05-29T19:54:14.508Z,70.89
2023-05-29T19:56:42.227Z,72.72
2023-05-29T19:59:10.097Z,74.34
2023-05-29T20:01:37.885Z,71.55
2023-05-29T20:04:07.074Z,74.46
2023-05-29T20:06:34.894Z,71.35
2023-05-29T20:09:02.777Z,70.77
2023-05-29T20:11:31.291Z,73.40
2023-05-29T20:13:59.152Z,73.54
2023-05-29T20:16:26.988Z,73.53
2023-05-29T20:18:54.787Z,74.99
2023-05-29T20:21:23.979Z,74.70
2023-05-29T20:23:52.325Z,75.75
2023-05-29T20:26:20.107Z,76.57
2023-05-29T20:28:47.865Z,76.33
2023-05-29T20:31:15.632Z,74.43
2023-05-29T20:33:44.363Z,75.21
2023-05-29T20:36:12.179Z,73.87
2023-05-29T20:38:44.313Z,75.23
2023-05-29T20:41:12.940Z,76.06
2023-05-29T20:43:40.874Z,73.49
2023-05-29T20:46:09.162Z,75.63
2023-05-29T20:48:37.084Z,76.78
2023-05-29T20:51:05.210Z,75.79
2023-05-29T20:53:32.997Z,74.91
2023-05-29T20:56:02.312Z,75.32
2023-05-29T20:58:30.447Z,76.47
2023-05-29T21:00:58.476Z,77.75
2023-05-29T21:03:26.520Z,75.62
2023-05-29T21:05:54.415Z,74.36
2023-05-29T21:08:22.149Z,77.15
2023-05-29T21:10:49.995Z,75.69
2023-05-29T21:13:22.380Z,76.96
2023-05-29T21:15:50.942Z,75.81
2023-05-29T21:18:18.936Z,77.78
2023-05-29T21:20:46.728Z,73.75
2023-05-29T21:23:14.914Z,75.93
2023-05-29T21:25:42.791Z,77.30
2023-05-29T21:28:10.545Z,76.44
2023-05-29T21:30:39.648Z,77.34
2023-05-29T21:33:08.216Z,79.77
2023-05-29T21:35:37.783Z,75.90
2023-05-29T21:38:05.665Z,80.22
2023-05-29T21:40:33.907Z,79.56
2023-05-29T21:43:01.969Z,77.17
2023-05-29T21:45:29.791Z,77.79
2023-05-29T21:47:59.622Z,79.07
2023-05-29T21:50:27.399Z,78.42
2023-05-29T21:52:55.174Z,78.55
2023-05-29T21:55:22.940Z,78.03
2023-05-29T21:57:51.794Z,79.21
2023-05-29T22:00:21.454Z,78.93
2023-05-29T22:02:49.416Z,77.07
2023-05-29T22:05:19.052Z,79.58
2023-05-29T22:07:46.816Z,78.02
2023-05-29T22:10:14.655Z,77.35
2023-05-29T22:12:43.297Z,77.33
2023-05-29T22:15:13.534Z,79.70
2023-05-29T22:17:43.626Z,78.59
2023-05-29T22:20:14.235Z,78.68
2023-05-29T22:22:44.086Z,80.20
2023-05-29T22:25:13.407Z,80.81
2023-05-29T22:27:41.270Z,79.64
2023-05-29T22:30:10.218Z,80.69
2023-05-29T22:32:39.312Z,79.39
2023-05-29T22:35:07.839Z,77.40
2023-05-29T22:37:36.862Z,81.43
2023-05-29T22:40:10.708Z,78.99
2023-05-29T22:42:39.633Z,78.32
2023-05-29T22:45:08.952Z,80.04
2023-05-29T22:47:37.141Z,79.27
2023-05-29T22:50:05.484Z,81.22
2023-05-29T22:52:34.380Z,79.06
2023-05-29T22:55:03.854Z,80.06
2023-05-29T22:57:34.701Z,79.67
2023-05-29T23:00:05.958Z,80.12
2023-05-29T23:02:34.171Z,79.87
2023-05-29T23:05:02.764Z,80.78
2023-05-29T23:07:30.834Z,81.72
2023-05-29T23:09:58.608Z,82.97
2023-05-29T23:12:26.728Z,81.16
2023-05-29T23:14:56.371Z,77.58
2023-05-29T23:17:24.307Z,77.97
2023-05-29T23:19:52.169Z,78.14
2023-05-29T23:22:20.103Z,77.50
2023-05-29T23:24:48.033Z,76.22
2023-05-29T23:27:15.872Z,77.59
2023-05-29T23:29:44.650Z,79.97
2023-05-29T23:32:13.785Z,80.25
2023-05-29T23:34:42.019Z,78.23
2023-05-29T23:37:10.264Z,81.21
2023-05-29T23:39:38.036Z,79.85
2023-05-29T23:42:06.446Z,81.58
2023-05-29T23:44:34.218Z,80.88
2023-05-29T23:47:01.961Z,82.56
2023-05-29T23:49:31.009Z,79.83
2023-05-29T23:51:59.064Z,82.69
2023-05-29T23:54:26.918Z,82.82
2023-05-29T23:56:54.741Z,80.38
2023-05-29T23:59:23.462Z,82.75
